createdAt,value
2024-04-14T00:01:31.891Z,42.73
2024-04-14T00:04:34.443Z,42.56
2024-04-14T00:07:38.017Z,42.62
2024-04-14T00:10:40.396Z,42.60
2024-04-14T00:13:42.788Z,42.64
2024-04-14T00:16:45.145Z,42.78
2024-04-14T00:19:52.905Z,42.77
2024-04-14T00:22:55.906Z,42.92
2024-04-14T00:25:58.263Z,43.40
2024-04-14T00:29:00.638Z,43.13
2024-04-14T00:32:03.129Z,43.21
2024-04-14T00:35:05.636Z,43.31
2024-04-14T00:38:08.078Z,43.31
2024-04-14T00:41:10.478Z,43.33
2024-04-14T00:44:12.910Z,43.00
2024-04-14T00:47:15.570Z,42.46
2024-04-14T00:50:18.102Z,42.40
2024-04-14T00:53:21.670Z,41.81
2024-04-14T00:56:24.732Z,41.83
2024-04-14T00:59:28.021Z,42.09
2024-04-14T01:02:30.476Z,41.82
2024-04-14T01:05:32.850Z,41.71
2024-04-14T01:08:35.519Z,41.61
2024-04-14T01:11:37.903Z,41.55
2024-04-14T01:14:40.618Z,41.77
2024-04-14T01:17:44.674Z,41.98
2024-04-14T01:20:47.235Z,41.88
2024-04-14T01:23:49.542Z,42.17
2024-04-14T01:26:51.966Z,42.21
2024-04-14T01:29:54.327Z,42.39
2024-04-14T01:32:57.807Z,42.26
2024-04-14T01:36:00.263Z,42.22
2024-04-14T01:39:02.669Z,42.27
2024-04-14T01:42:05.368Z,42.05
2024-04-14T01:45:11.239Z,42.25
2024-04-14T01:48:14.002Z,42.33
2024-04-14T01:51:16.516Z,42.48
2024-04-14T01:54:18.949Z,42.31
2024-04-14T01:57:21.571Z,42.44
2024-04-14T02:00:24.018Z,42.49
2024-04-14T02:03:26.613Z,42.36
2024-04-14T02:06:29.312Z,42.46
2024-04-14T02:09:32.580Z,42.63
2024-04-14T02:12:34.982Z,42.58
2024-04-14T02:15:37.480Z,42.84
2024-04-14T02:18:39.970Z,42.43
2024-04-14T02:21:43.769Z,42.52
2024-04-14T02:24:49.178Z,42.44
2024-04-14T02:27:51.702Z,42.47
2024-04-14T02:30:54.149Z,42.59
2024-04-14T02:33:56.655Z,42.38
2024-04-14T02:36:59.146Z,42.37
2024-04-14T02:40:02.303Z,42.43
2024-04-14T02:43:04.854Z,42.62
2024-04-14T02:46:07.299Z,42.26
2024-04-14T02:49:09.750Z,42.38
2024-04-14T02:52:12.062Z,42.02
2024-04-14T02:55:14.524Z,42.14
2024-04-14T02:58:18.583Z,41.94
2024-04-14T03:01:21.405Z,42.07
2024-04-14T03:04:26.083Z,41.65
2024-04-14T03:07:29.553Z,41.91
2024-04-14T03:10:35.183Z,41.54
2024-04-14T03:13:37.608Z,42.03
2024-04-14T03:16:40.046Z,41.64
2024-04-14T03:19:42.395Z,42.04
2024-04-14T03:22:44.789Z,42.12
2024-04-14T03:25:47.139Z,42.06
2024-04-14T03:28:49.556Z,41.81
2024-04-14T03:31:52.089Z,41.83
2024-04-14T03:34:54.499Z,42.03
2024-04-14T03:37:56.895Z,42.23
2024-04-14T03:40:59.268Z,41.82
2024-04-14T03:44:01.781Z,42.00
2024-04-14T03:47:04.443Z,41.90
2024-04-14T03:50:07.492Z,42.09
2024-04-14T03:53:09.983Z,42.04
2024-04-14T03:56:12.441Z,42.04
2024-04-14T03:59:14.775Z,41.68
2024-04-14T04:02:17.345Z,41.98
2024-04-14T04:05:19.701Z,41.96
2024-04-14T04:08:23.364Z,42.09
2024-04-14T04:11:25.837Z,41.99
2024-04-14T04:14:29.782Z,42.01
2024-04-14T04:17:32.276Z,41.87
2024-04-14T04:20:34.785Z,42.12
2024-04-14T04:23:37.349Z,42.07
2024-04-14T04:26:39.708Z,42.23
2024-04-14T04:29:42.245Z,42.03
2024-04-14T04:32:44.771Z,42.26
2024-04-14T04:35:57.706Z,42.34
2024-04-14T04:39:04.602Z,42.47
2024-04-14T04:42:07.273Z,42.52
2024-04-14T04:45:09.758Z,42.52
2024-04-14T04:48:12.183Z,42.48
2024-04-14T04:51:14.678Z,42.62
2024-04-14T04:54:17.854Z,42.61
2024-04-14T04:57:20.225Z,42.67
2024-04-14T05:00:22.616Z,42.66
2024-04-14T05:03:28.642Z,42.70
2024-04-14T05:06:34.850Z,42.70
2024-04-14T05:09:37.375Z,42.75
2024-04-14T05:12:39.854Z,42.75
2024-04-14T05:15:44.613Z,43.03
2024-04-14T05:18:47.359Z,42.82
2024-04-14T05:21:49.968Z,43.31
2024-04-14T05:24:52.370Z,43.22
2024-04-14T05:27:54.827Z,43.30
2024-04-14T05:30:57.585Z,43.72
2024-04-14T05:34:00.264Z,43.90
2024-04-14T05:37:03.453Z,44.01
2024-04-14T05:40:07.214Z,44.33
2024-04-14T05:43:10.394Z,44.16
2024-04-14T05:46:12.843Z,44.46
2024-04-14T05:49:18.867Z,44.11
2024-04-14T05:52:23.073Z,44.63
2024-04-14T05:55:26.205Z,44.40
2024-04-14T05:58:28.762Z,44.39
2024-04-14T06:01:31.175Z,44.44
2024-04-14T06:04:33.828Z,45.04
2024-04-14T06:07:37.017Z,45.14
2024-04-14T06:10:39.687Z,45.03
2024-04-14T06:13:42.074Z,45.37
2024-04-14T06:16:44.684Z,45.44
2024-04-14T06:19:47.139Z,45.42
2024-04-14T06:22:50.429Z,45.33
2024-04-14T06:25:52.923Z,45.87
2024-04-14T06:28:55.238Z,45.69
2024-04-14T06:31:57.662Z,45.79
2024-04-14T06:35:00.661Z,46.12
2024-04-14T06:38:03.016Z,46.05
2024-04-14T06:41:05.526Z,45.60
2024-04-14T06:44:08.036Z,45.82
2024-04-14T06:47:10.527Z,45.84
2024-04-14T06:50:13.002Z,45.53
2024-04-14T06:53:15.397Z,45.91
2024-04-14T06:56:17.773Z,45.88
2024-04-14T06:59:20.130Z,45.80
2024-04-14T07:02:22.549Z,45.70
2024-04-14T07:05:24.970Z,45.75
2024-04-14T07:08:27.429Z,45.29
2024-04-14T07:11:30.735Z,45.46
2024-04-14T07:14:33.231Z,45.74
2024-04-14T07:17:35.798Z,46.41
2024-04-14T07:20:41.679Z,46.32
2024-04-14T07:23:45.092Z,46.39
2024-04-14T07:26:47.547Z,46.19
2024-04-14T07:29:49.927Z,47.09
2024-04-14T07:32:52.316Z,46.65
2024-04-14T07:35:54.941Z,47.32
2024-04-14T07:38:57.499Z,46.19
2024-04-14T07:42:02.022Z,46.17
2024-04-14T07:45:04.814Z,46.56
2024-04-14T07:48:07.630Z,46.94
2024-04-14T07:51:10.221Z,46.93
2024-04-14T07:54:12.913Z,46.81
2024-04-14T07:57:15.339Z,47.00
2024-04-14T08:00:17.700Z,46.56
2024-04-14T08:03:20.305Z,46.78
2024-04-14T08:06:23.240Z,46.53
2024-04-14T08:09:25.648Z,46.71
2024-04-14T08:12:29.456Z,46.95
2024-04-14T08:15:31.969Z,46.37
2024-04-14T08:18:34.441Z,47.30
2024-04-14T08:21:37.456Z,46.87
2024-04-14T08:24:40.099Z,46.92
2024-04-14T08:27:42.626Z,46.88
2024-04-14T08:30:45.046Z,46.24
2024-04-14T08:33:47.667Z,46.42
2024-04-14T08:36:50.224Z,46.71
2024-04-14T08:39:52.748Z,46.59
2024-04-14T08:42:56.756Z,46.69
2024-04-14T08:46:00.258Z,46.39
2024-04-14T08:49:02.916Z,46.39
2024-04-14T08:52:06.106Z,46.06
2024-04-14T08:55:10.445Z,46.29
2024-04-14T08:58:15.399Z,46.03
2024-04-14T09:01:18.028Z,46.30
2024-04-14T09:04:21.490Z,46.45
2024-04-14T09:07:23.949Z,46.19
2024-04-14T09:10:26.814Z,47.00
2024-04-14T09:13:30.018Z,46.56
2024-04-14T09:16:32.581Z,46.91
2024-04-14T09:19:40.703Z,46.86
2024-04-14T09:22:43.211Z,46.54
2024-04-14T09:25:45.670Z,46.27
2024-04-14T09:28:48.222Z,46.39
2024-04-14T09:31:50.668Z,45.93
2024-04-14T09:34:53.110Z,46.81
2024-04-14T09:37:58.778Z,46.17
2024-04-14T09:41:03.526Z,46.52
2024-04-14T09:44:06.894Z,45.83
2024-04-14T09:47:09.963Z,46.40
2024-04-14T09:50:12.498Z,45.77
2024-04-14T09:53:16.216Z,45.24
2024-04-14T09:56:19.086Z,45.34
2024-04-14T09:59:21.628Z,45.13
2024-04-14T10:02:29.695Z,45.11
2024-04-14T10:05:34.018Z,44.98
2024-04-14T10:08:36.624Z,45.33
2024-04-14T10:11:39.647Z,45.46
2024-04-14T10:14:45.919Z,45.77
2024-04-14T10:17:49.489Z,45.61
2024-04-14T10:20:51.940Z,45.56
2024-04-14T10:23:56.124Z,45.47
2024-04-14T10:27:08.053Z,45.59
2024-04-14T10:30:11.577Z,45.14
2024-04-14T10:33:21.790Z,44.82
2024-04-14T10:36:27.724Z,44.90
2024-04-14T10:39:32.466Z,44.93
2024-04-14T10:42:37.930Z,44.61
2024-04-14T10:45:40.496Z,44.06
2024-04-14T10:48:45.480Z,44.16
2024-04-14T10:51:47.921Z,44.54
2024-04-14T10:54:50.807Z,44.42
2024-04-14T10:57:53.279Z,44.08
2024-04-14T11:00:56.134Z,43.93
2024-04-14T11:03:59.209Z,43.71
2024-04-14T11:07:05.175Z,43.40
2024-04-14T11:10:09.489Z,42.32
2024-04-14T11:13:16.933Z,41.76
2024-04-14T11:16:20.351Z,41.33
2024-04-14T11:19:22.748Z,41.81
2024-04-14T11:22:25.113Z,41.50
2024-04-14T11:25:27.521Z,41.66
2024-04-14T11:28:29.970Z,41.57
2024-04-14T11:31:35.195Z,41.39
2024-04-14T11:34:37.742Z,40.94
2024-04-14T11:37:45.968Z,40.97
2024-04-14T11:40:49.813Z,41.15
2024-04-14T11:43:52.289Z,41.22
2024-04-14T11:46:55.160Z,40.97
2024-04-14T11:49:57.650Z,41.36
2024-04-14T11:52:59.999Z,40.85
2024-04-14T11:56:03.152Z,40.22
2024-04-14T11:59:05.597Z,40.68
2024-04-14T12:02:08.021Z,40.16
2024-04-14T12:05:10.492Z,40.34
2024-04-14T12:08:13.312Z,40.09
2024-04-14T12:11:15.857Z,40.20
2024-04-14T12:14:18.282Z,39.96
2024-04-14T12:17:20.819Z,39.64
2024-04-14T12:20:23.564Z,39.41
2024-04-14T12:23:25.915Z,38.88
2024-04-14T12:26:28.316Z,39.34
2024-04-14T12:29:31.863Z,39.29
2024-04-14T12:32:34.301Z,39.22
2024-04-14T12:35:36.706Z,39.28
2024-04-14T12:38:39.126Z,39.33
2024-04-14T12:41:42.109Z,38.68
2024-04-14T12:44:44.541Z,38.59
2024-04-14T12:47:47.035Z,38.72
2024-04-14T12:50:51.467Z,38.44
2024-04-14T12:53:53.935Z,37.95
2024-04-14T12:56:56.328Z,37.91
2024-04-14T12:59:58.766Z,38.00
2024-04-14T13:03:01.261Z,38.32
2024-04-14T13:06:03.860Z,38.58
2024-04-14T13:09:06.362Z,38.76
2024-04-14T13:12:11.287Z,39.26
2024-04-14T13:15:14.216Z,39.09
2024-04-14T13:18:16.757Z,39.14
2024-04-14T13:21:19.261Z,39.23
2024-04-14T13:24:21.618Z,39.31
2024-04-14T13:27:23.938Z,39.28
2024-04-14T13:30:26.315Z,39.38
2024-04-14T13:33:28.790Z,39.48
2024-04-14T13:36:31.437Z,39.35
2024-04-14T13:39:33.846Z,39.26
2024-04-14T13:42:36.290Z,39.45
2024-04-14T13:45:38.754Z,39.17
2024-04-14T13:48:42.680Z,38.97
2024-04-14T13:51:45.242Z,39.11
2024-04-14T13:54:47.855Z,38.94
2024-04-14T13:57:50.311Z,38.48
2024-04-14T14:00:53.083Z,38.50
2024-04-14T14:03:55.704Z,38.73
2024-04-14T14:06:58.317Z,38.85
2024-04-14T14:10:01.044Z,39.02
2024-04-14T14:13:03.501Z,39.05
2024-04-14T14:16:07.462Z,38.89
2024-04-14T14:19:10.129Z,38.79
2024-04-14T14:22:13.711Z,38.61
2024-04-14T14:25:16.358Z,38.73
2024-04-14T14:28:18.761Z,38.55
2024-04-14T14:31:21.213Z,38.14
2024-04-14T14:34:43.279Z,37.96
2024-04-14T14:37:46.038Z,37.91
2024-04-14T14:40:48.419Z,37.70
2024-04-14T14:43:50.851Z,37.58
2024-04-14T14:46:53.450Z,37.52
2024-04-14T14:49:57.909Z,37.26
2024-04-14T14:53:00.383Z,37.76
2024-04-14T14:56:04.207Z,37.57
2024-04-14T14:59:06.668Z,36.73
2024-04-14T15:02:10.601Z,36.80
2024-04-14T15:05:12.997Z,36.89
2024-04-14T15:08:15.418Z,37.13
2024-04-14T15:11:19.293Z,36.51
2024-04-14T15:14:21.920Z,37.08
2024-04-14T15:17:24.406Z,36.82
2024-04-14T15:20:26.881Z,37.28
2024-04-14T15:23:32.156Z,37.64
2024-04-14T15:26:36.247Z,37.89
2024-04-14T15:29:39.622Z,37.89
2024-04-14T15:32:42.617Z,38.11
2024-04-14T15:35:45.246Z,38.14
2024-04-14T15:38:47.649Z,38.31
2024-04-14T15:41:50.080Z,38.41
2024-04-14T15:44:52.643Z,38.66
2024-04-14T15:47:55.029Z,38.53
2024-04-14T15:51:09.650Z,38.47
2024-04-14T15:54:20.442Z,38.55
2024-04-14T15:57:28.440Z,38.61
2024-04-14T16:00:37.097Z,38.80
2024-04-14T16:03:39.737Z,38.70
2024-04-14T16:06:42.209Z,38.79
2024-04-14T16:09:45.149Z,38.57
2024-04-14T16:12:49.572Z,38.96
2024-04-14T16:15:52.811Z,38.97
2024-04-14T16:18:56.273Z,38.86
2024-04-14T16:21:58.870Z,38.84
2024-04-14T16:25:01.439Z,38.83
2024-04-14T16:28:04.256Z,38.63
2024-04-14T16:31:06.816Z,38.61
2024-04-14T16:34:09.624Z,38.66
2024-04-14T16:37:12.114Z,38.68
2024-04-14T16:40:14.545Z,38.79
2024-04-14T16:43:17.163Z,38.90
2024-04-14T16:46:19.618Z,38.93
2024-04-14T16:49:22.117Z,38.62
2024-04-14T16:52:24.669Z,38.86
2024-04-14T16:55:27.978Z,38.95
2024-04-14T16:58:30.450Z,38.87
2024-04-14T17:01:33.037Z,38.97
2024-04-14T17:04:35.596Z,38.82
2024-04-14T17:07:38.132Z,38.72
2024-04-14T17:10:40.810Z,38.94
2024-04-14T17:13:43.219Z,38.90
2024-04-14T17:16:45.641Z,38.86
2024-04-14T17:19:48.219Z,38.99
2024-04-14T17:22:50.657Z,38.92
2024-04-14T17:25:53.078Z,38.97
2024-04-14T17:28:55.522Z,39.02
2024-04-14T17:31:57.845Z,39.16
2024-04-14T17:35:00.280Z,38.87
2024-04-14T17:38:02.636Z,38.93
2024-04-14T17:41:05.752Z,38.98
2024-04-14T17:44:08.225Z,38.92
2024-04-14T17:47:11.105Z,39.42
2024-04-14T17:50:13.562Z,39.63
2024-04-14T17:53:15.929Z,39.59
2024-04-14T17:56:18.500Z,39.55
2024-04-14T17:59:20.958Z,39.48
2024-04-14T18:02:24.664Z,39.84
2024-04-14T18:05:27.066Z,39.72
2024-04-14T18:08:29.406Z,39.77
2024-04-14T18:11:33.218Z,39.52
2024-04-14T18:14:35.697Z,39.71
2024-04-14T18:17:38.245Z,39.88
2024-04-14T18:20:41.790Z,40.08
2024-04-14T18:23:45.136Z,39.98
2024-04-14T18:26:47.512Z,40.13
2024-04-14T18:29:49.927Z,39.94
2024-04-14T18:32:52.345Z,40.17
2024-04-14T18:35:55.789Z,40.23
2024-04-14T18:38:58.083Z,40.00
2024-04-14T18:42:01.118Z,40.00
2024-04-14T18:45:03.730Z,40.41
2024-04-14T18:48:06.368Z,40.56
2024-04-14T18:51:10.059Z,40.28
2024-04-14T18:54:12.667Z,40.36
2024-04-14T18:57:15.008Z,40.36
2024-04-14T19:00:17.753Z,40.41
2024-04-14T19:03:20.257Z,40.95
2024-04-14T19:06:23.515Z,40.77
2024-04-14T19:09:25.855Z,41.13
2024-04-14T19:12:28.229Z,41.19
2024-04-14T19:15:30.675Z,41.14
2024-04-14T19:18:33.155Z,41.38
2024-04-14T19:21:35.613Z,41.63
2024-04-14T19:24:38.020Z,41.67
2024-04-14T19:27:40.463Z,41.67
2024-04-14T19:30:42.942Z,41.77
2024-04-14T19:33:45.534Z,41.69
2024-04-14T19:36:48.339Z,41.91
2024-04-14T19:39:50.705Z,41.88
2024-04-14T19:42:53.257Z,42.15
2024-04-14T19:45:55.837Z,42.05
2024-04-14T19:48:58.444Z,42.26
2024-04-14T19:52:01.090Z,42.09
2024-04-14T19:55:05.949Z,41.98
2024-04-14T19:58:08.440Z,42.11
2024-04-14T20:01:10.987Z,42.26
2024-04-14T20:04:13.684Z,42.35
2024-04-14T20:07:18.844Z,42.86
2024-04-14T20:10:21.351Z,42.66
2024-04-14T20:13:24.240Z,42.84
2024-04-14T20:16:26.859Z,42.88
2024-04-14T20:19:29.344Z,43.07
2024-04-14T20:22:31.868Z,43.05
2024-04-14T20:25:34.149Z,43.32
2024-04-14T20:28:37.669Z,43.15
2024-04-14T20:31:40.112Z,43.47
2024-04-14T20:34:42.703Z,43.38
2024-04-14T20:37:45.159Z,43.34
2024-04-14T20:40:56.696Z,43.71
2024-04-14T20:43:59.070Z,43.97
2024-04-14T20:47:01.449Z,43.56
2024-04-14T20:50:03.938Z,43.89
2024-04-14T20:53:06.283Z,43.70
2024-04-14T20:56:08.676Z,43.58
2024-04-14T20:59:11.174Z,43.85
2024-04-14T21:02:13.870Z,43.52
2024-04-14T21:05:16.579Z,43.31
2024-04-14T21:08:19.030Z,43.39
2024-04-14T21:11:21.487Z,43.79
2024-04-14T21:14:24.024Z,43.89
2024-04-14T21:17:26.484Z,44.02
2024-04-14T21:20:28.963Z,44.18
2024-04-14T21:23:31.400Z,44.25
2024-04-14T21:26:33.727Z,43.90
2024-04-14T21:29:36.173Z,44.11
2024-04-14T21:32:38.625Z,43.86
2024-04-14T21:35:41.019Z,44.12
2024-04-14T21:38:43.366Z,44.07
2024-04-14T21:41:45.737Z,44.09
2024-04-14T21:44:48.122Z,44.33
2024-04-14T21:47:50.690Z,44.29
2024-04-14T21:50:58.875Z,44.43
2024-04-14T21:54:01.922Z,44.37
2024-04-14T21:57:04.329Z,44.41
2024-04-14T22:00:07.722Z,44.48
2024-04-14T22:03:10.063Z,44.44
2024-04-14T22:06:12.652Z,44.30
2024-04-14T22:09:15.159Z,44.34
2024-04-14T22:12:17.605Z,44.11
2024-04-14T22:15:20.088Z,44.29
2024-04-14T22:18:22.559Z,44.50
2024-04-14T22:21:24.992Z,44.51
2024-04-14T22:24:27.939Z,44.88
2024-04-14T22:27:30.393Z,44.56
2024-04-14T22:30:32.807Z,44.56
2024-04-14T22:33:35.495Z,44.40
2024-04-14T22:36:37.996Z,44.51
2024-04-14T22:39:40.429Z,44.94
2024-04-14T22:42:42.795Z,44.97
2024-04-14T22:45:46.123Z,45.01
2024-04-14T22:48:48.526Z,44.82
2024-04-14T22:51:51.002Z,44.82
2024-04-14T22:54:53.441Z,44.88
2024-04-14T22:57:55.822Z,44.77
2024-04-14T23:00:58.434Z,44.91
2024-04-14T23:04:01.073Z,44.72
2024-04-14T23:07:03.808Z,44.63
2024-04-14T23:10:06.403Z,44.56
2024-04-14T23:13:08.865Z,44.72
2024-04-14T23:16:13.224Z,44.78
2024-04-14T23:19:15.870Z,44.80
2024-04-14T23:22:18.272Z,44.70
2024-04-14T23:25:20.853Z,44.91
2024-04-14T23:28:23.240Z,44.76
2024-04-14T23:31:25.608Z,44.95
2024-04-14T23:34:27.991Z,44.92
2024-04-14T23:37:30.380Z,44.83
2024-04-14T23:40:32.873Z,44.73
2024-04-14T23:43:35.271Z,44.91
2024-04-14T23:46:37.589Z,45.10
2024-04-14T23:49:40.024Z,45.24
2024-04-14T23:52:42.400Z,45.29
2024-04-14T23:55:47.691Z,45.06
2024-04-14T23:58:50.121Z,44.65
